sensor_id;sensor_type;location;lat;lon;timestamp;pressure;altitude;pressure_sealevel;temperature;humidity
42003;BME280;27693;50.506;30.832;2023-02-13T00:00:34;101108.05;;;-2.99;70.11
42003;BME280;27693;50.506;30.832;2023-02-13T00:01:37;101100.27;;;-3.03;70.25
42003;BME280;27693;50.506;30.832;2023-02-13T00:02:40;101102.61;;;-3.10;70.54
42003;BME280;27693;50.506;30.832;2023-02-13T00:03:43;101090.27;;;-2.97;70.71
42003;BME280;27693;50.506;30.832;2023-02-13T00:04:47;101098.88;;;-2.94;70.29
42003;BME280;27693;50.506;30.832;2023-02-13T00:05:49;101093.77;;;-2.94;70.30
42003;BME280;27693;50.506;30.832;2023-02-13T00:06:51;101096.33;;;-2.94;70.12
42003;BME280;27693;50.506;30.832;2023-02-13T00:07:53;101093.05;;;-2.90;70.19
42003;BME280;27693;50.506;30.832;2023-02-13T00:08:56;101101.75;;;-2.83;70.28
42003;BME280;27693;50.506;30.832;2023-02-13T00:09:58;101100.72;;;-2.88;69.92
42003;BME280;27693;50.506;30.832;2023-02-13T00:11:01;101095.36;;;-2.97;69.90
42003;BME280;27693;50.506;30.832;2023-02-13T00:12:04;101091.81;;;-3.02;69.93
42003;BME280;27693;50.506;30.832;2023-02-13T00:13:07;101090.11;;;-3.02;70.25
42003;BME280;27693;50.506;30.832;2023-02-13T00:14:10;101087.77;;;-2.96;70.51
42003;BME280;27693;50.506;30.832;2023-02-13T00:15:12;101085.98;;;-2.98;70.12
42003;BME280;27693;50.506;30.832;2023-02-13T00:16:15;101085.98;;;-2.98;70.16
42003;BME280;27693;50.506;30.832;2023-02-13T00:17:18;101081.63;;;-3.02;70.11
42003;BME280;27693;50.506;30.832;2023-02-13T00:18:22;101088.15;;;-3.11;70.21
42003;BME280;27693;50.506;30.832;2023-02-13T00:19:24;101077.85;;;-3.14;70.28
42003;BME280;27693;50.506;30.832;2023-02-13T00:20:26;101081.70;;;-2.99;70.60
42003;BME280;27693;50.506;30.832;2023-02-13T00:21:28;101072.91;;;-3.09;70.22
42003;BME280;27693;50.506;30.832;2023-02-13T00:22:35;101073.14;;;-3.01;70.38
42003;BME280;27693;50.506;30.832;2023-02-13T00:23:39;101078.16;;;-3.05;70.20
42003;BME280;27693;50.506;30.832;2023-02-13T00:24:41;101071.33;;;-3.06;70.31
42003;BME280;27693;50.506;30.832;2023-02-13T00:25:44;101080.74;;;-3.03;70.50
42003;BME280;27693;50.506;30.832;2023-02-13T00:26:46;101075.80;;;-2.98;70.49
42003;BME280;27693;50.506;30.832;2023-02-13T00:27:50;101075.06;;;-2.94;70.73
42003;BME280;27693;50.506;30.832;2023-02-13T00:28:56;101070.89;;;-2.92;70.41
42003;BME280;27693;50.506;30.832;2023-02-13T00:29:59;101090.16;;;-3.00;70.15
42003;BME280;27693;50.506;30.832;2023-02-13T00:31:04;101078.20;;;-3.03;70.37
42003;BME280;27693;50.506;30.832;2023-02-13T00:32:14;101078.57;;;-2.91;70.55
42003;BME280;27693;50.506;30.832;2023-02-13T00:33:16;101073.14;;;-3.01;70.43
42003;BME280;27693;50.506;30.832;2023-02-13T00:34:20;101075.61;;;-3.05;70.29
42003;BME280;27693;50.506;30.832;2023-02-13T00:35:22;101078.34;;;-2.98;70.21
42003;BME280;27693;50.506;30.832;2023-02-13T00:36:24;101072.41;;;-2.99;70.12
42003;BME280;27693;50.506;30.832;2023-02-13T00:37:26;101069.70;;;-3.03;70.24
42003;BME280;27693;50.506;30.832;2023-02-13T00:38:30;101072.88;;;-3.11;70.39
42003;BME280;27693;50.506;30.832;2023-02-13T00:39:32;101057.41;;;-3.17;70.39
42003;BME280;27693;50.506;30.832;2023-02-13T00:40:35;101057.41;;;-3.17;70.39
42003;BME280;27693;50.506;30.832;2023-02-13T00:41:38;101073.69;;;-3.12;70.33
42003;BME280;27693;50.506;30.832;2023-02-13T00:42:40;101071.91;;;-3.14;70.74
42003;BME280;27693;50.506;30.832;2023-02-13T00:43:44;101076.12;;;-3.15;70.50
42003;BME280;27693;50.506;30.832;2023-02-13T00:44:47;101069.87;;;-3.25;70.68
42003;BME280;27693;50.506;30.832;2023-02-13T00:45:50;101071.56;;;-3.25;70.82
42003;BME280;27693;50.506;30.832;2023-02-13T00:46:52;101064.73;;;-3.26;70.92
42003;BME280;27693;50.506;30.832;2023-02-13T00:47:55;101061.46;;;-3.22;71.13
42003;BME280;27693;50.506;30.832;2023-02-13T00:48:57;101049.58;;;-3.23;71.20
42003;BME280;27693;50.506;30.832;2023-02-13T00:50:00;101051.07;;;-3.02;71.62
42003;BME280;27693;50.506;30.832;2023-02-13T00:51:05;101053.73;;;-2.98;71.57
42003;BME280;27693;50.506;30.832;2023-02-13T00:52:07;101054.51;;;-3.00;70.99
42003;BME280;27693;50.506;30.832;2023-02-13T00:53:10;101053.80;;;-2.96;70.96
42003;BME280;27693;50.506;30.832;2023-02-13T00:54:12;101057.42;;;-2.88;71.20
42003;BME280;27693;50.506;30.832;2023-02-13T00:55:15;101045.43;;;-2.92;70.65
42003;BME280;27693;50.506;30.832;2023-02-13T00:56:18;101055.58;;;-2.94;70.44
42003;BME280;27693;50.506;30.832;2023-02-13T00:57:20;101044.43;;;-2.97;70.26
42003;BME280;27693;50.506;30.832;2023-02-13T00:58:23;101047.60;;;-3.05;70.55
42003;BME280;27693;50.506;30.832;2023-02-13T00:59:25;101045.76;;;-3.09;70.58
42003;BME280;27693;50.506;30.832;2023-02-13T01:00:29;101051.19;;;-2.98;70.91
42003;BME280;27693;50.506;30.832;2023-02-13T01:01:31;101037.31;;;-3.08;70.54
42003;BME280;27693;50.506;30.832;2023-02-13T01:02:34;101042.59;;;-3.01;70.69
42003;BME280;27693;50.506;30.832;2023-02-13T01:03:38;101045.68;;;-3.12;70.54
42003;BME280;27693;50.506;30.832;2023-02-13T01:04:40;101038.66;;;-3.19;70.55
42003;BME280;27693;50.506;30.832;2023-02-13T01:05:43;101030.98;;;-3.21;71.07
42003;BME280;27693;50.506;30.832;2023-02-13T01:06:47;101040.59;;;-3.12;71.09
42003;BME280;27693;50.506;30.832;2023-02-13T01:07:49;101036.42;;;-3.10;70.89
42003;BME280;27693;50.506;30.832;2023-02-13T01:08:52;101038.27;;;-3.04;71.01
42003;BME280;27693;50.506;30.832;2023-02-13T01:09:54;101032.41;;;-3.01;71.27
42003;BME280;27693;50.506;30.832;2023-02-13T01:10:57;101030.70;;;-3.02;71.19
42003;BME280;27693;50.506;30.832;2023-02-13T01:12:00;101044.50;;;-2.94;71.55
42003;BME280;27693;50.506;30.832;2023-02-13T01:13:02;101034.14;;;-3.00;71.08
42003;BME280;27693;50.506;30.832;2023-02-13T01:14:04;101040.30;;;-2.94;70.91
42003;BME280;27693;50.506;30.832;2023-02-13T01:15:08;101041.07;;;-2.96;71.07
42003;BME280;27693;50.506;30.832;2023-02-13T01:16:11;101033.36;;;-2.98;70.80
42003;BME280;27693;50.506;30.832;2023-02-13T01:17:16;101022.03;;;-3.08;70.68
42003;BME280;27693;50.506;30.832;2023-02-13T01:18:19;101025.02;;;-2.94;71.09
42003;BME280;27693;50.506;30.832;2023-02-13T01:19:22;101031.73;;;-2.96;70.76
42003;BME280;27693;50.506;30.832;2023-02-13T01:20:27;101032.63;;;-2.95;70.83
42003;BME280;27693;50.506;30.832;2023-02-13T01:21:30;101032.52;;;-2.98;71.66
42003;BME280;27693;50.506;30.832;2023-02-13T01:22:32;101039.23;;;-3.00;71.23
42003;BME280;27693;50.506;30.832;2023-02-13T01:23:36;101021.95;;;-3.11;71.10
42003;BME280;27693;50.506;30.832;2023-02-13T01:24:40;101026.94;;;-3.14;70.90
42003;BME280;27693;50.506;30.832;2023-02-13T01:25:42;101022.84;;;-3.09;70.98
42003;BME280;27693;50.506;30.832;2023-02-13T01:26:45;101021.77;;;-3.17;70.97
42003;BME280;27693;50.506;30.832;2023-02-13T01:27:47;101025.94;;;-3.19;71.20
42003;BME280;27693;50.506;30.832;2023-02-13T01:28:52;101021.84;;;-3.14;71.16
42003;BME280;27693;50.506;30.832;2023-02-13T01:29:55;101022.66;;;-3.15;71.40
42003;BME280;27693;50.506;30.832;2023-02-13T01:30:58;101022.66;;;-3.15;71.40
42003;BME280;27693;50.506;30.832;2023-02-13T01:32:01;101013.20;;;-3.19;71.37
42003;BME280;27693;50.506;30.832;2023-02-13T01:33:05;101021.77;;;-3.17;71.46
42003;BME280;27693;50.506;30.832;2023-02-13T01:34:08;101015.02;;;-3.15;71.50
42003;BME280;27693;50.506;30.832;2023-02-13T01:35:11;101011.84;;;-3.08;71.91
42003;BME280;27693;50.506;30.832;2023-02-13T01:36:14;101014.83;;;-2.94;71.97
42003;BME280;27693;50.506;30.832;2023-02-13T01:37:17;101009.48;;;-3.01;71.45
42003;BME280;27693;50.506;30.832;2023-02-13T01:38:20;101020.59;;;-2.99;71.78
42003;BME280;27693;50.506;30.832;2023-02-13T01:39:22;101017.13;;;-3.01;71.51
42003;BME280;27693;50.506;30.832;2023-02-13T01:40:25;101017.05;;;-3.05;71.89
42003;BME280;27693;50.506;30.832;2023-02-13T01:41:29;101027.31;;;-3.01;71.96
42003;BME280;27693;50.506;30.832;2023-02-13T01:42:33;101017.64;;;-3.13;71.47
42003;BME280;27693;50.506;30.832;2023-02-13T01:43:57;101006.68;;;-3.11;72.34
42003;BME280;27693;50.506;30.832;2023-02-13T01:45:03;101016.27;;;-3.02;72.21
42003;BME280;27693;50.506;30.832;2023-02-13T01:46:06;101016.05;;;-3.10;72.01
42003;BME280;27693;50.506;30.832;2023-02-13T01:47:11;101008.23;;;-3.16;72.08
42003;BME280;27693;50.506;30.832;2023-02-13T01:48:18;101008.48;;;-3.07;72.18
42003;BME280;27693;50.506;30.832;2023-02-13T01:49:22;101017.02;;;-3.06;72.06
42003;BME280;27693;50.506;30.832;2023-02-13T01:51:39;101013.50;;;-3.10;71.86
42003;BME280;27693;50.506;30.832;2023-02-13T01:52:47;101010.81;;;-3.14;71.74
42003;BME280;27693;50.506;30.832;2023-02-13T01:53:55;101007.16;;;-3.23;71.78
42003;BME280;27693;50.506;30.832;2023-02-13T01:55:02;101018.96;;;-3.25;71.93
42003;BME280;27693;50.506;30.832;2023-02-13T01:56:12;101005.89;;;-3.35;72.04
42003;BME280;27693;50.506;30.832;2023-02-13T01:57:20;101008.62;;;-3.29;72.15
42003;BME280;27693;50.506;30.832;2023-02-13T01:58:28;101001.92;;;-3.27;72.12
42003;BME280;27693;50.506;30.832;2023-02-13T01:59:41;100995.91;;;-3.29;72.12
42003;BME280;27693;50.506;30.832;2023-02-13T02:00:40;101001.06;;;-3.28;72.20
42003;BME280;27693;50.506;30.832;2023-02-13T02:01:44;101000.30;;;-3.25;72.03
42003;BME280;27693;50.506;30.832;2023-02-13T02:02:50;101004.38;;;-3.30;72.22
42003;BME280;27693;50.506;30.832;2023-02-13T02:03:59;101002.11;;;-3.21;72.45
42003;BME280;27693;50.506;30.832;2023-02-13T02:05:05;100991.03;;;-3.23;72.05
42003;BME280;27693;50.506;30.832;2023-02-13T02:06:13;100992.70;;;-3.24;72.18
42003;BME280;27693;50.506;30.832;2023-02-13T02:07:20;100996.05;;;-3.25;72.13
42003;BME280;27693;50.506;30.832;2023-02-13T02:08:26;100992.11;;;-3.15;72.34
42003;BME280;27693;50.506;30.832;2023-02-13T02:09:31;101000.59;;;-3.16;72.45
42003;BME280;27693;50.506;30.832;2023-02-13T02:10:34;100989.37;;;-3.21;72.17
42003;BME280;27693;50.506;30.832;2023-02-13T02:14:17;100990.03;;;-2.99;72.66
42003;BME280;27693;50.506;30.832;2023-02-13T02:15:19;100985.53;;;-3.08;72.17
42003;BME280;27693;50.506;30.832;2023-02-13T02:16:24;100995.50;;;-3.16;71.89
42003;BME280;27693;50.506;30.832;2023-02-13T02:17:27;100989.56;;;-3.15;72.33
42003;BME280;27693;50.506;30.832;2023-02-13T02:18:29;100993.21;;;-3.07;72.65
42003;BME280;27693;50.506;30.832;2023-02-13T02:29:57;100991.59;;;-3.05;73.17
42003;BME280;27693;50.506;30.832;2023-02-13T02:35:00;100992.95;;;-3.16;72.95
42003;BME280;27693;50.506;30.832;2023-02-13T02:56:36;100972.03;;;-2.77;74.07
42003;BME280;27693;50.506;30.832;2023-02-13T02:57:38;100975.39;;;-2.78;74.30
42003;BME280;27693;50.506;30.832;2023-02-13T02:59:06;100975.04;;;-2.90;74.05
42003;BME280;27693;50.506;30.832;2023-02-13T03:00:25;100978.30;;;-2.94;74.35
42003;BME280;27693;50.506;30.832;2023-02-13T03:01:51;100972.63;;;-2.85;74.54
42003;BME280;27693;50.506;30.832;2023-02-13T03:03:19;100961.70;;;-2.81;74.95
42003;BME280;27693;50.506;30.832;2023-02-13T03:04:43;100973.77;;;-2.76;75.02
42003;BME280;27693;50.506;30.832;2023-02-13T03:06:11;100964.56;;;-2.70;74.72
42003;BME280;27693;50.506;30.832;2023-02-13T03:07:17;100963.58;;;-2.76;74.64
42003;BME280;27693;50.506;30.832;2023-02-13T03:08:20;100964.45;;;-2.74;74.61
42003;BME280;27693;50.506;30.832;2023-02-13T03:09:30;100969.63;;;-2.72;75.01
42003;BME280;27693;50.506;30.832;2023-02-13T03:10:52;100961.84;;;-2.77;74.56
42003;BME280;27693;50.506;30.832;2023-02-13T03:12:19;100966.83;;;-2.80;74.86
42003;BME280;27693;50.506;30.832;2023-02-13T03:13:43;100965.10;;;-2.81;74.42
42003;BME280;27693;50.506;30.832;2023-02-13T03:14:46;100972.03;;;-2.77;74.40
42003;BME280;27693;50.506;30.832;2023-02-13T03:15:51;100965.34;;;-2.73;74.68
42003;BME280;27693;50.506;30.832;2023-02-13T03:17:14;100965.55;;;-2.65;74.86
42003;BME280;27693;50.506;30.832;2023-02-13T03:18:38;100961.60;;;-2.54;74.38
42003;BME280;27693;50.506;30.832;2023-02-13T03:20:06;100966.77;;;-2.52;74.02
42003;BME280;27693;50.506;30.832;2023-02-13T03:23:15;100964.25;;;-2.51;73.61
42003;BME280;27693;50.506;30.832;2023-02-13T03:28:37;100968.33;;;-2.58;73.13
42003;BME280;27693;50.506;30.832;2023-02-13T03:30:02;100958.00;;;-2.62;72.87
42003;BME280;27693;50.506;30.832;2023-02-13T03:31:26;100953.62;;;-2.66;73.35
42003;BME280;27693;50.506;30.832;2023-02-13T03:34:01;100956.81;;;-2.74;73.13
42003;BME280;27693;50.506;30.832;2023-02-13T03:35:26;100950.73;;;-2.79;73.69
42003;BME280;27693;50.506;30.832;2023-02-13T03:41:01;100933.95;;;-3.02;73.83
42003;BME280;27693;50.506;30.832;2023-02-13T03:42:51;100936.48;;;-3.02;74.27
42003;BME280;27693;50.506;30.832;2023-02-13T03:43:53;100936.48;;;-3.02;74.02
42003;BME280;27693;50.506;30.832;2023-02-13T03:44:58;100931.40;;;-3.02;74.18
42003;BME280;27693;50.506;30.832;2023-02-13T03:46:19;100933.73;;;-3.09;74.18
42003;BME280;27693;50.506;30.832;2023-02-13T03:47:24;100932.03;;;-3.10;74.25
42003;BME280;27693;50.506;30.832;2023-02-13T03:48:29;100933.73;;;-3.09;74.23
42003;BME280;27693;50.506;30.832;2023-02-13T03:49:51;100937.88;;;-3.12;74.29
42003;BME280;27693;50.506;30.832;2023-02-13T03:51:08;100929.42;;;-3.11;74.23
42003;BME280;27693;50.506;30.832;2023-02-13T03:52:30;100920.80;;;-3.16;74.33
42003;BME280;27693;50.506;30.832;2023-02-13T03:53:34;100928.43;;;-3.16;74.45
42003;BME280;27693;50.506;30.832;2023-02-13T03:54:54;100931.93;;;-3.13;74.61
42003;BME280;27693;50.506;30.832;2023-02-13T03:56:18;100930.97;;;-3.16;74.48
42003;BME280;27693;50.506;30.832;2023-02-13T03:57:43;100926.55;;;-3.22;74.78
42003;BME280;27693;50.506;30.832;2023-02-13T03:59:07;100922.24;;;-3.25;74.93
42003;BME280;27693;50.506;30.832;2023-02-13T04:00:20;100924.86;;;-3.23;75.16
42003;BME280;27693;50.506;30.832;2023-02-13T04:01:27;100920.51;;;-3.26;75.16
42003;BME280;27693;50.506;30.832;2023-02-13T04:02:31;100922.84;;;-3.33;75.46
42003;BME280;27693;50.506;30.832;2023-02-13T04:03:56;100924.42;;;-3.37;75.74
42003;BME280;27693;50.506;30.832;2023-02-13T04:05:21;100912.51;;;-3.38;75.95
42003;BME280;27693;50.506;30.832;2023-02-13T04:06:28;100914.28;;;-3.35;76.19
42003;BME280;27693;50.506;30.832;2023-02-13T04:07:26;100909.11;;;-3.39;76.34
42003;BME280;27693;50.506;30.832;2023-02-13T04:08:33;100909.97;;;-3.38;76.49
42003;BME280;27693;50.506;30.832;2023-02-13T04:09:38;100917.56;;;-3.40;76.66
42003;BME280;27693;50.506;30.832;2023-02-13T04:10:49;100912.44;;;-3.41;76.82
42003;BME280;27693;50.506;30.832;2023-02-13T04:13:26;100908.20;;;-3.41;77.06
42003;BME280;27693;50.506;30.832;2023-02-13T04:14:42;100905.76;;;-3.38;77.18
42003;BME280;27693;50.506;30.832;2023-02-13T04:15:54;100919.38;;;-3.35;77.24
42003;BME280;27693;50.506;30.832;2023-02-13T04:17:01;100906.46;;;-3.42;77.38
42003;BME280;27693;50.506;30.832;2023-02-13T04:18:24;100908.23;;;-3.39;77.57
42003;BME280;27693;50.506;30.832;2023-02-13T04:19:27;100911.84;;;-3.32;77.69
42003;BME280;27693;50.506;30.832;2023-02-13T04:20:31;100900.92;;;-3.28;77.54
42003;BME280;27693;50.506;30.832;2023-02-13T04:21:35;100897.53;;;-3.29;77.49
42003;BME280;27693;50.506;30.832;2023-02-13T04:22:42;100892.51;;;-3.26;77.53
42003;BME280;27693;50.506;30.832;2023-02-13T04:23:45;100898.52;;;-3.24;77.55
42003;BME280;27693;50.506;30.832;2023-02-13T04:24:47;100900.25;;;-3.23;77.65
42003;BME280;27693;50.506;30.832;2023-02-13T04:25:51;100895.20;;;-3.21;77.64
42003;BME280;27693;50.506;30.832;2023-02-13T04:26:55;100901.24;;;-3.17;77.59
42003;BME280;27693;50.506;30.832;2023-02-13T04:27:58;100898.84;;;-3.13;77.54
42003;BME280;27693;50.506;30.832;2023-02-13T04:29:01;100899.79;;;-3.09;77.46
42003;BME280;27693;50.506;30.832;2023-02-13T04:30:04;100901.55;;;-3.07;77.58
42003;BME280;27693;50.506;30.832;2023-02-13T04:31:07;100902.61;;;-3.00;77.53
42003;BME280;27693;50.506;30.832;2023-02-13T04:32:10;100889.09;;;-2.97;77.27
42003;BME280;27693;50.506;30.832;2023-02-13T04:33:12;100891.72;;;-2.94;77.30
42003;BME280;27693;50.506;30.832;2023-02-13T04:34:15;100898.54;;;-2.93;77.11
42003;BME280;27693;50.506;30.832;2023-02-13T04:35:17;100895.18;;;-2.92;76.90
42003;BME280;27693;50.506;30.832;2023-02-13T04:36:20;100895.18;;;-2.92;76.90
42003;BME280;27693;50.506;30.832;2023-02-13T04:37:23;100891.81;;;-2.91;76.96
42003;BME280;27693;50.506;30.832;2023-02-13T04:38:27;100895.92;;;-2.96;77.04
42003;BME280;27693;50.506;30.832;2023-02-13T04:39:29;100891.64;;;-2.97;77.13
42003;BME280;27693;50.506;30.832;2023-02-13T04:40:32;100894.19;;;-2.97;77.27
42003;BME280;27693;50.506;30.832;2023-02-13T04:41:35;100883.19;;;-2.96;77.35
42003;BME280;27693;50.506;30.832;2023-02-13T04:42:37;100873.95;;;-2.93;77.23
42003;BME280;27693;50.506;30.832;2023-02-13T04:43:40;100878.16;;;-2.93;77.26
42003;BME280;27693;50.506;30.832;2023-02-13T04:44:42;100878.09;;;-2.96;77.26
42003;BME280;27693;50.506;30.832;2023-02-13T04:45:49;100878.00;;;-2.99;77.39
42003;BME280;27693;50.506;30.832;2023-02-13T04:46:52;100888.28;;;-2.96;77.51
42003;BME280;27693;50.506;30.832;2023-02-13T04:47:55;100888.31;;;-2.95;77.48
42003;BME280;27693;50.506;30.832;2023-02-13T04:48:58;100886.72;;;-2.91;77.68
42003;BME280;27693;50.506;30.832;2023-02-13T04:50:00;100883.36;;;-2.90;77.50
42003;BME280;27693;50.506;30.832;2023-02-13T04:51:02;100884.99;;;-2.92;77.42
42003;BME280;27693;50.506;30.832;2023-02-13T04:52:04;100891.00;;;-2.90;77.50
42003;BME280;27693;50.506;30.832;2023-02-13T04:53:08;100884.34;;;-2.85;77.64
42003;BME280;27693;50.506;30.832;2023-02-13T04:54:10;100887.02;;;-2.80;77.46
42003;BME280;27693;50.506;30.832;2023-02-13T04:55:13;100890.48;;;-2.78;77.47
42003;BME280;27693;50.506;30.832;2023-02-13T04:56:16;100885.33;;;-2.80;77.25
42003;BME280;27693;50.506;30.832;2023-02-13T04:57:20;100888.89;;;-2.75;77.34
42003;BME280;27693;50.506;30.832;2023-02-13T04:58:23;100899.14;;;-2.71;77.49
42003;BME280;27693;50.506;30.832;2023-02-13T04:59:26;100896.69;;;-2.68;77.15
42003;BME280;27693;50.506;30.832;2023-02-13T05:00:29;100890.03;;;-2.63;77.18
42003;BME280;27693;50.506;30.832;2023-02-13T05:01:33;100895.16;;;-2.62;77.12
42003;BME280;27693;50.506;30.832;2023-02-13T05:02:36;100890.84;;;-2.64;76.83
42003;BME280;27693;50.506;30.832;2023-02-13T05:03:40;100887.48;;;-2.63;76.87
42003;BME280;27693;50.506;30.832;2023-02-13T05:04:42;100886.73;;;-2.59;76.51
42003;BME280;27693;50.506;30.832;2023-02-13T05:05:45;100886.73;;;-2.59;76.51
42003;BME280;27693;50.506;30.832;2023-02-13T05:06:47;100894.37;;;-2.59;76.74
42003;BME280;27693;50.506;30.832;2023-02-13T05:07:49;100884.12;;;-2.62;76.61
42003;BME280;27693;50.506;30.832;2023-02-13T05:08:51;100890.06;;;-2.62;76.75
42003;BME280;27693;50.506;30.832;2023-02-13T05:09:54;100885.75;;;-2.64;76.78
42003;BME280;27693;50.506;30.832;2023-02-13T05:10:56;100887.48;;;-2.63;76.95
42003;BME280;27693;50.506;30.832;2023-02-13T05:11:59;100891.10;;;-2.55;77.04
42003;BME280;27693;50.506;30.832;2023-02-13T05:13:01;100894.53;;;-2.53;76.81
42003;BME280;27693;50.506;30.832;2023-02-13T05:14:03;100883.52;;;-2.52;76.85
42003;BME280;27693;50.506;30.832;2023-02-13T05:15:06;100891.27;;;-2.49;76.82
42003;BME280;27693;50.506;30.832;2023-02-13T05:16:09;100887.80;;;-2.51;76.75
42003;BME280;27693;50.506;30.832;2023-02-13T05:17:12;100880.19;;;-2.49;76.71
42003;BME280;27693;50.506;30.832;2023-02-13T05:18:14;100891.17;;;-2.52;76.75
42003;BME280;27693;50.506;30.832;2023-02-13T05:19:16;100897.14;;;-2.51;76.79
42003;BME280;27693;50.506;30.832;2023-02-13T05:20:19;100894.63;;;-2.50;76.95
42003;BME280;27693;50.506;30.832;2023-02-13T05:21:21;100896.52;;;-2.43;76.88
42003;BME280;27693;50.506;30.832;2023-02-13T05:22:46;100896.58;;;-2.39;76.78
42003;BME280;27693;50.506;30.832;2023-02-13T05:24:07;100894.87;;;-2.41;76.61
42003;BME280;27693;50.506;30.832;2023-02-13T05:25:10;100894.50;;;-2.54;76.96
42003;BME280;27693;50.506;30.832;2023-02-13T05:26:12;100903.12;;;-2.49;77.15
42003;BME280;27693;50.506;30.832;2023-02-13T05:27:14;100892.23;;;-2.44;77.12
42003;BME280;27693;50.506;30.832;2023-02-13T05:28:17;100898.16;;;-2.45;77.15
42003;BME280;27693;50.506;30.832;2023-02-13T05:29:37;100899.19;;;-2.38;77.16
42003;BME280;27693;50.506;30.832;2023-02-13T05:30:40;100888.27;;;-2.32;77.06
42003;BME280;27693;50.506;30.832;2023-02-13T05:31:42;100898.63;;;-2.26;76.91
42003;BME280;27693;50.506;30.832;2023-02-13T05:32:45;100892.80;;;-2.22;76.77
42003;BME280;27693;50.506;30.832;2023-02-13T05:33:48;100890.30;;;-2.19;76.76
42003;BME280;27693;50.506;30.832;2023-02-13T05:34:50;100881.84;;;-2.18;76.56
42003;BME280;27693;50.506;30.832;2023-02-13T05:35:52;100882.72;;;-2.17;76.47
42003;BME280;27693;50.506;30.832;2023-02-13T05:36:57;100893.70;;;-2.20;76.63
42003;BME280;27693;50.506;30.832;2023-02-13T05:37:59;100884.45;;;-2.16;76.65
42003;BME280;27693;50.506;30.832;2023-02-13T05:39:01;100883.72;;;-2.11;76.90
42003;BME280;27693;50.506;30.832;2023-02-13T05:40:05;100888.94;;;-2.06;76.64
42003;BME280;27693;50.506;30.832;2023-02-13T05:41:07;100883.86;;;-2.04;76.49
42003;BME280;27693;50.506;30.832;2023-02-13T05:42:09;100889.20;;;-1.95;76.50
42003;BME280;27693;50.506;30.832;2023-02-13T05:43:11;100885.88;;;-1.91;76.39
42003;BME280;27693;50.506;30.832;2023-02-13T05:44:14;100885.74;;;-1.97;76.30
42003;BME280;27693;50.506;30.832;2023-02-13T05:45:17;100882.31;;;-1.99;76.41
42003;BME280;27693;50.506;30.832;2023-02-13T05:46:20;100898.49;;;-1.97;76.59
42003;BME280;27693;50.506;30.832;2023-02-13T05:47:22;100890.93;;;-1.94;76.50
42003;BME280;27693;50.506;30.832;2023-02-13T05:48:24;100891.80;;;-1.92;76.50
42003;BME280;27693;50.506;30.832;2023-02-13T05:49:26;100885.09;;;-1.88;76.49
42003;BME280;27693;50.506;30.832;2023-02-13T05:50:28;100889.34;;;-1.89;76.41
42003;BME280;27693;50.506;30.832;2023-02-13T05:51:31;100881.78;;;-1.86;76.53
42003;BME280;27693;50.506;30.832;2023-02-13T05:52:33;100879.37;;;-1.80;76.41
42003;BME280;27693;50.506;30.832;2023-02-13T05:53:36;100889.48;;;-1.83;76.27
42003;BME280;27693;50.506;30.832;2023-02-13T05:54:39;100892.86;;;-1.84;76.32
42003;BME280;27693;50.506;30.832;2023-02-13T05:55:41;100891.30;;;-1.79;76.38
42003;BME280;27693;50.506;30.832;2023-02-13T05:56:44;100888.92;;;-1.71;76.54
42003;BME280;27693;50.506;30.832;2023-02-13T05:57:48;100877.14;;;-1.64;76.87
42003;BME280;27693;50.506;30.832;2023-02-13T05:58:52;100881.42;;;-1.63;76.20
42003;BME280;27693;50.506;30.832;2023-02-13T05:59:55;100885.10;;;-1.52;76.42
42003;BME280;27693;50.506;30.832;2023-02-13T06:00:58;100874.23;;;-1.43;76.69
42003;BME280;27693;50.506;30.832;2023-02-13T06:02:01;100874.25;;;-1.41;76.26
42003;BME280;27693;50.506;30.832;2023-02-13T06:03:03;100881.11;;;-1.39;76.31
42003;BME280;27693;50.506;30.832;2023-02-13T06:04:06;100876.06;;;-1.37;75.68
42003;BME280;27693;50.506;30.832;2023-02-13T06:05:08;100883.05;;;-1.29;76.07
42003;BME280;27693;50.506;30.832;2023-02-13T06:06:10;100873.06;;;-1.18;75.95
42003;BME280;27693;50.506;30.832;2023-02-13T06:07:12;100867.10;;;-1.17;75.14
42003;BME280;27693;50.506;30.832;2023-02-13T06:08:15;100873.89;;;-1.19;74.89
42003;BME280;27693;50.506;30.832;2023-02-13T06:09:17;100873.94;;;-1.16;74.96
42003;BME280;27693;50.506;30.832;2023-02-13T06:10:19;100868.88;;;-1.14;75.11
42003;BME280;27693;50.506;30.832;2023-02-13T06:11:21;100867.16;;;-1.15;74.85
42003;BME280;27693;50.506;30.832;2023-02-13T06:12:24;100861.25;;;-1.13;75.32
42003;BME280;27693;50.506;30.832;2023-02-13T06:13:26;100863.09;;;-1.05;75.42
42003;BME280;27693;50.506;30.832;2023-02-13T06:14:30;100860.54;;;-1.05;75.43
42003;BME280;27693;50.506;30.832;2023-02-13T06:15:32;100864.11;;;-0.97;75.78
42003;BME280;27693;50.506;30.832;2023-02-13T06:16:34;100866.03;;;-1.28;75.04
42003;BME280;27693;50.506;30.832;2023-02-13T06:17:36;100861.83;;;-1.26;75.68
42003;BME280;27693;50.506;30.832;2023-02-13T06:18:39;100863.59;;;-1.22;75.30
42003;BME280;27693;50.506;30.832;2023-02-13T06:19:41;100865.45;;;-1.15;75.55
42003;BME280;27693;50.506;30.832;2023-02-13T06:20:44;100864.65;;;-1.12;75.02
42003;BME280;27693;50.506;30.832;2023-02-13T06:21:46;100863.72;;;-1.16;74.67
42003;BME280;27693;50.506;30.832;2023-02-13T06:22:50;100850.25;;;-1.08;75.52
42003;BME280;27693;50.506;30.832;2023-02-13T06:24:00;100850.48;;;-0.96;74.82
42003;BME280;27693;50.506;30.832;2023-02-13T06:25:03;100848.52;;;-1.09;74.79
42003;BME280;27693;50.506;30.832;2023-02-13T06:26:07;100840.69;;;-1.19;74.95
42003;BME280;27693;50.506;30.832;2023-02-13T06:27:11;100847.67;;;-1.10;74.88
42003;BME280;27693;50.506;30.832;2023-02-13T06:28:16;100840.91;;;-1.08;75.33
42003;BME280;27693;50.506;30.832;2023-02-13T06:29:19;100845.12;;;-1.10;75.01
42003;BME280;27693;50.506;30.832;2023-02-13T06:30:21;100843.25;;;-1.19;74.71
42003;BME280;27693;50.506;30.832;2023-02-13T06:31:25;100842.22;;;-1.27;74.95